Time;durP1;ratioP1;P1;durP2;ratioP2;P2;SDS_P1;SDS_P2;PMS_P1;PMS_P2;Temp;Humidity;BMP_temperature;BMP_pressure;BME280_temperature;BME280_humidity;BME280_pressure;Samples;Min_cycle;Max_cycle;Signal;HPM_P1;HPM_P2
2023/08/12 00:01:54;;;;;;;7.78;3.22;;;;;;;18.65;nan;95807.59;5069497;28;20039;-80
2023/08/12 00:04:19;;;;;;;4.15;2.97;;;;;;;18.53;nan;95777.81;5071243;28;20542;-80
2023/08/12 00:06:45;;;;;;;4.72;3.17;;;;;;;18.35;nan;95755.44;5069921;28;20081;-80
2023/08/12 00:09:15;;;;;;;5.22;3.20;;;;;;;18.28;nan;95730.91;5070845;28;20088;-80
2023/08/12 00:11:40;;;;;;;5.15;3.13;;;;;;;17.97;nan;95681.81;5079087;28;20509;-80
2023/08/12 00:14:06;;;;;;;4.13;3.05;;;;;;;18.63;nan;95764.09;5070360;28;20048;-80
2023/08/12 00:16:32;;;;;;;10.23;3.25;;;;;;;18.37;nan;95726.38;5069127;28;20291;-80
2023/08/12 00:18:58;;;;;;;7.07;3.08;;;;;;;18.30;nan;95693.81;5068096;28;20123;-80
2023/08/12 00:21:25;;;;;;;3.67;2.95;;;;;;;18.55;nan;95754.09;5068534;28;20051;-80
2023/08/12 00:23:50;;;;;;;3.65;2.60;;;;;;;18.94;nan;95807.06;5069823;28;20039;-80
2023/08/12 00:26:16;;;;;;;4.97;4.05;;;;;;;18.60;nan;95761.25;5071400;28;20276;-80
2023/08/12 00:28:41;;;;;;;4.28;3.05;;;;;;;18.20;nan;95712.88;5070593;28;20036;-80
2023/08/12 00:31:07;;;;;;;5.55;3.08;;;;;;;18.54;nan;95755.19;5071167;28;20516;-79
2023/08/12 00:33:33;;;;;;;3.85;2.90;;;;;;;18.48;nan;95751.84;5074819;28;20044;-81
2023/08/12 00:35:58;;;;;;;7.75;2.75;;;;;;;18.65;nan;95761.13;5078580;28;20115;-81
2023/08/12 00:38:24;;;;;;;5.72;3.00;;;;;;;18.47;nan;95730.66;5077381;28;20111;-81
2023/08/12 00:40:49;;;;;;;5.53;3.00;;;;;;;18.18;nan;95700.84;5074628;28;20031;-81
2023/08/12 00:43:15;;;;;;;4.45;2.92;;;;;;;18.22;nan;95732.16;5073955;28;20086;-82
2023/08/12 00:45:40;;;;;;;8.65;2.97;;;;;;;18.54;nan;95787.41;5073956;28;20435;-81
2023/08/12 00:48:07;;;;;;;4.63;3.17;;;;;;;18.23;nan;95716.84;5073920;28;20044;-79
2023/08/12 00:50:34;;;;;;;4.03;2.65;;;;;;;18.50;nan;95760.41;5075067;28;20047;-79
2023/08/12 00:52:59;;;;;;;3.45;2.55;;;;;;;17.53;nan;95592.22;5070664;28;20101;-79
2023/08/12 00:55:25;;;;;;;5.20;3.03;;;;;;;18.93;nan;95797.41;5074473;28;20139;-80
2023/08/12 00:57:51;;;;;;;5.25;3.05;;;;;;;18.78;nan;95782.50;5057077;28;20612;-80
2023/08/12 01:00:19;;;;;;;3.08;2.35;;;;;;;18.97;nan;95787.63;5074462;28;20085;-80
2023/08/12 01:02:48;;;;;;;5.10;2.80;;;;;;;18.85;nan;95755.19;5073410;28;20025;-82
2023/08/12 01:05:14;;;;;;;3.80;3.03;;;;;;;18.91;nan;95772.78;5074642;28;20059;-80
2023/08/12 01:07:39;;;;;;;3.50;2.58;;;;;;;18.82;nan;95745.84;5072730;28;20127;-79
2023/08/12 01:10:05;;;;;;;6.32;3.20;;;;;;;19.13;nan;95780.72;5077752;28;20060;-80
2023/08/12 01:12:42;;;;;;;5.78;2.90;;;;;;;18.69;nan;95740.59;5074412;28;20070;-80
2023/08/12 01:15:13;;;;;;;4.13;2.70;;;;;;;18.75;nan;95736.66;5073472;28;20102;-80
2023/08/12 01:17:42;;;;;;;7.57;3.08;;;;;;;19.08;nan;95764.72;5071782;28;20032;-80
2023/08/12 01:20:08;;;;;;;8.65;3.13;;;;;;;19.03;nan;95766.78;5073973;28;20051;-80
2023/08/12 01:22:39;;;;;;;4.18;3.00;;;;;;;18.84;nan;95740.19;5072858;28;20491;-80
2023/08/12 01:25:05;;;;;;;7.18;2.97;;;;;;;19.03;nan;95772.16;5071656;28;20597;-80
2023/08/12 01:27:30;;;;;;;3.72;2.80;;;;;;;18.70;nan;95745.66;5078304;28;20033;-80
2023/08/12 01:29:56;;;;;;;5.70;3.05;;;;;;;18.92;nan;95782.38;5072091;28;20025;-80
2023/08/12 01:32:37;;;;;;;3.72;2.63;;;;;;;18.96;nan;95782.56;5073097;28;20119;-80
2023/08/12 01:35:26;;;;;;;11.53;2.93;;;;;;;18.80;nan;95758.81;5070394;28;20033;-80
2023/08/12 01:37:52;;;;;;;4.32;3.10;;;;;;;18.42;nan;95714.69;5071301;28;20128;-80
2023/08/12 01:40:19;;;;;;;4.47;3.17;;;;;;;18.87;nan;95777.16;5073278;28;20041;-80
2023/08/12 01:42:45;;;;;;;3.85;2.70;;;;;;;18.41;nan;95721.97;5076664;28;20123;-80
2023/08/12 01:45:11;;;;;;;5.20;3.03;;;;;;;18.86;nan;95778.25;5071932;28;20032;-80
2023/08/12 01:47:37;;;;;;;5.82;2.47;;;;;;;18.43;nan;95718.97;5071223;28;20036;-80
2023/08/12 01:50:02;;;;;;;4.28;3.13;;;;;;;18.84;nan;95780.50;5068359;28;20035;-80
2023/08/12 01:52:28;;;;;;;4.93;2.90;;;;;;;18.40;nan;95727.63;5072132;28;20029;-81
2023/08/12 01:54:54;;;;;;;6.30;2.92;;;;;;;18.77;nan;95783.59;5072090;28;20509;-81
2023/08/12 01:57:20;;;;;;;3.63;2.72;;;;;;;18.66;nan;95774.25;5073918;28;20024;-81
2023/08/12 01:59:45;;;;;;;4.60;3.17;;;;;;;18.48;nan;95741.09;5071542;28;20044;-81
2023/08/12 02:02:11;;;;;;;5.75;3.08;;;;;;;18.10;nan;95676.34;5073452;28;20051;-80
2023/08/12 02:04:37;;;;;;;4.82;3.00;;;;;;;18.62;nan;95764.41;5073334;28;20025;-80
2023/08/12 02:07:03;;;;;;;7.57;3.40;;;;;;;18.51;nan;95739.72;5072667;28;20023;-80
2023/08/12 02:09:29;;;;;;;4.60;2.83;;;;;;;18.17;nan;95700.06;5072960;28;20414;-80
2023/08/12 02:11:54;;;;;;;4.32;3.00;;;;;;;18.59;nan;95770.41;5072687;28;20040;-80
2023/08/12 02:14:20;;;;;;;6.82;2.97;;;;;;;18.60;nan;95786.25;5070828;28;20076;-79
2023/08/12 02:16:45;;;;;;;7.00;3.13;;;;;;;18.44;nan;95734.78;5071516;28;20037;-80
2023/08/12 02:19:11;;;;;;;7.32;2.95;;;;;;;18.33;nan;95706.59;5071740;28;20067;-80
2023/08/12 02:21:36;;;;;;;3.97;2.72;;;;;;;18.11;nan;95688.66;5075379;28;20044;-80
2023/08/12 02:24:02;;;;;;;4.85;2.78;;;;;;;18.57;nan;95775.31;5073117;28;20107;-80
2023/08/12 02:26:27;;;;;;;7.18;3.38;;;;;;;18.18;nan;95708.91;5073003;28;20043;-80
2023/08/12 02:28:52;;;;;;;5.80;3.33;;;;;;;18.52;nan;95785.06;5073204;28;20028;-80
2023/08/12 02:31:18;;;;;;;4.25;3.10;;;;;;;18.11;nan;95730.81;5072904;28;20120;-80
2023/08/12 02:33:43;;;;;;;5.55;2.92;;;;;;;18.00;nan;95716.84;5071342;28;20033;-80
2023/08/12 02:36:09;;;;;;;6.55;3.00;;;;;;;18.21;nan;95741.31;5072048;28;20043;-80
2023/08/12 02:38:35;;;;;;;6.45;2.88;;;;;;;18.18;nan;95736.53;5082761;28;20028;-80
2023/08/12 02:41:00;;;;;;;7.15;3.45;;;;;;;18.57;nan;95792.22;5072803;28;20032;-80
2023/08/12 02:43:26;;;;;;;7.45;3.22;;;;;;;17.86;nan;95675.88;5072121;28;20036;-80
2023/08/12 02:45:52;;;;;;;7.18;3.05;;;;;;;18.22;nan;95734.03;5070298;28;20024;-79
2023/08/12 02:48:17;;;;;;;10.77;3.20;;;;;;;18.18;nan;95733.06;5070529;28;20028;-80
2023/08/12 02:50:43;;;;;;;7.38;3.65;;;;;;;17.95;nan;95698.19;5072669;28;20483;-80
2023/08/12 02:53:09;;;;;;;8.30;2.88;;;;;;;17.97;nan;95741.63;5070315;28;20104;-81
2023/08/12 02:55:34;;;;;;;5.88;2.95;;;;;;;18.34;nan;95796.81;5071973;28;20048;-80
2023/08/12 02:58:01;;;;;;;4.97;3.10;;;;;;;18.16;nan;95770.19;5072790;28;20158;-80
2023/08/12 03:00:27;;;;;;;3.65;2.70;;;;;;;18.34;nan;95799.50;5081246;28;20024;-80
2023/08/12 03:02:53;;;;;;;7.82;3.47;;;;;;;18.26;nan;95789.50;5084760;28;20032;-80
2023/08/12 03:05:20;;;;;;;7.00;3.33;;;;;;;18.42;nan;95798.75;5071405;28;20059;-80
2023/08/12 03:07:45;;;;;;;11.13;3.25;;;;;;;17.74;nan;95703.28;5080243;28;20048;-80
2023/08/12 03:10:11;;;;;;;7.28;3.28;;;;;;;18.30;nan;95785.09;5073627;28;20103;-80
2023/08/12 03:12:36;;;;;;;8.10;4.13;;;;;;;18.16;nan;95748.69;5071398;28;20033;-80
2023/08/12 03:15:03;;;;;;;6.05;3.38;;;;;;;18.26;nan;95780.63;5070929;28;20045;-80
2023/08/12 03:17:28;;;;;;;4.85;3.45;;;;;;;18.16;nan;95764.81;5069715;28;20522;-81
2023/08/12 03:19:54;;;;;;;10.98;3.70;;;;;;;18.35;nan;95792.22;5069318;28;20028;-80
2023/08/12 03:22:20;;;;;;;11.90;4.32;;;;;;;18.31;nan;95775.16;5071114;28;20059;-80
2023/08/12 03:24:46;;;;;;;9.30;4.35;;;;;;;18.17;nan;95788.63;5068690;28;20118;-80
2023/08/12 03:27:11;;;;;;;10.38;3.55;;;;;;;17.73;nan;95741.16;5070364;28;20028;-80
2023/08/12 03:29:37;;;;;;;8.85;3.72;;;;;;;17.98;nan;95778.09;5069279;28;20491;-79
2023/08/12 03:32:02;;;;;;;11.82;4.03;;;;;;;17.72;nan;95780.59;5075632;28;20024;-80
2023/08/12 03:34:29;;;;;;;18.00;4.28;;;;;;;17.94;nan;95789.75;5070386;28;20033;-80
2023/08/12 03:36:55;;;;;;;8.45;3.42;;;;;;;17.65;nan;95757.97;5068267;28;20039;-80
2023/08/12 03:39:20;;;;;;;4.93;2.80;;;;;;;17.84;nan;95777.38;5068890;28;20036;-80
2023/08/12 03:41:46;;;;;;;20.80;3.85;;;;;;;17.91;nan;95799.22;5069236;28;20113;-80
2023/08/12 03:44:12;;;;;;;8.73;3.72;;;;;;;17.64;nan;95775.94;5069270;28;20020;-80
2023/08/12 03:46:37;;;;;;;8.80;4.10;;;;;;;17.71;nan;95780.88;5068631;28;20094;-80
2023/08/12 03:49:03;;;;;;;11.20;4.10;;;;;;;17.66;nan;95797.09;5074893;28;20051;-80
2023/08/12 03:51:28;;;;;;;8.38;3.30;;;;;;;17.86;nan;95814.63;5069841;28;20032;-80
2023/08/12 03:53:54;;;;;;;7.07;4.38;;;;;;;17.86;nan;95811.94;5073036;28;20036;-79
2023/08/12 03:56:19;;;;;;;8.98;3.55;;;;;;;17.72;nan;95801.25;5068799;28;20040;-83
2023/08/12 03:58:45;;;;;;;4.75;3.50;;;;;;;17.57;nan;95785.47;5070012;28;20020;-80
2023/08/12 04:01:10;;;;;;;11.93;3.83;;;;;;;17.72;nan;95815.47;5070006;28;20039;-80
2023/08/12 04:03:36;;;;;;;5.35;3.40;;;;;;;17.81;nan;95823.59;5070701;28;20031;-80
2023/08/12 04:06:01;;;;;;;8.70;3.95;;;;;;;17.77;nan;95825.31;5070442;28;20074;-80
2023/08/12 04:08:26;;;;;;;6.32;3.88;;;;;;;17.41;nan;95766.25;5069681;28;20579;-79
2023/08/12 04:10:52;;;;;;;6.82;3.78;;;;;;;17.25;nan;95725.56;5069283;28;20077;-79
2023/08/12 04:13:18;;;;;;;8.88;4.10;;;;;;;17.65;nan;95782.91;5070160;28;20075;-80
2023/08/12 04:15:49;;;;;;;6.43;3.58;;;;;;;17.73;nan;95814.38;5071215;28;20197;-80
2023/08/12 04:18:15;;;;;;;5.40;3.95;;;;;;;17.41;nan;95776.19;5080297;28;20036;-80
2023/08/12 04:20:40;;;;;;;5.35;4.13;;;;;;;17.54;nan;95772.69;5072110;28;20119;-80
2023/08/12 04:23:06;;;;;;;7.28;4.18;;;;;;;17.86;nan;95828.03;5070474;28;20029;-80
2023/08/12 04:25:31;;;;;;;11.50;4.50;;;;;;;17.59;nan;95786.75;5070923;28;20016;-80
2023/08/12 04:27:56;;;;;;;6.88;4.53;;;;;;;17.85;nan;95831.84;5070935;28;20141;-80
2023/08/12 04:30:22;;;;;;;8.20;4.22;;;;;;;17.88;nan;95823.16;5068431;28;20058;-80
2023/08/12 04:32:47;;;;;;;10.13;4.72;;;;;;;17.74;nan;95799.88;5074906;28;20406;-80
2023/08/12 04:35:13;;;;;;;5.93;4.38;;;;;;;18.00;nan;95818.06;5071743;28;20040;-80
2023/08/12 04:37:38;;;;;;;10.70;5.10;;;;;;;17.92;nan;95830.31;5071567;28;20600;-80
2023/08/12 04:40:05;;;;;;;12.77;4.90;;;;;;;17.21;nan;95739.91;5068497;28;20055;-80
2023/08/12 04:42:30;;;;;;;8.93;4.72;;;;;;;17.64;nan;95810.81;5071002;28;20502;-80
2023/08/12 04:44:55;;;;;;;12.60;5.32;;;;;;;17.76;nan;95806.81;5070847;28;20032;-80
2023/08/12 04:47:21;;;;;;;8.68;4.65;;;;;;;17.54;nan;95775.38;5070431;28;20036;-80
2023/08/12 04:49:46;;;;;;;8.00;4.70;;;;;;;17.90;nan;95823.66;5069015;28;20028;-80
2023/08/12 04:52:12;;;;;;;13.30;4.90;;;;;;;17.78;nan;95813.44;5070206;28;20130;-80
2023/08/12 04:54:37;;;;;;;11.75;3.95;;;;;;;17.36;nan;95744.91;5068875;28;20474;-80
2023/08/12 04:57:03;;;;;;;11.68;4.47;;;;;;;17.94;nan;95822.72;5070034;28;20043;-80
2023/08/12 04:59:28;;;;;;;13.05;3.83;;;;;;;17.36;nan;95743.03;5070131;28;20431;-80
2023/08/12 05:01:54;;;;;;;7.95;3.88;;;;;;;17.63;nan;95776.25;5070978;28;20103;-81
2023/08/12 05:04:19;;;;;;;9.15;3.80;;;;;;;17.61;nan;95763.16;5078268;28;20487;-81
2023/08/12 05:06:45;;;;;;;7.82;4.30;;;;;;;17.78;nan;95791.97;5069726;28;20462;-81
2023/08/12 05:09:11;;;;;;;8.82;3.67;;;;;;;17.95;nan;95818.16;5068695;28;20190;-81
2023/08/12 05:11:36;;;;;;;7.40;3.28;;;;;;;17.60;nan;95783.00;5070540;28;20075;-81
2023/08/12 05:14:01;;;;;;;7.63;3.72;;;;;;;17.88;nan;95807.84;5068886;28;20127;-81
2023/08/12 05:16:28;;;;;;;6.90;3.45;;;;;;;17.79;nan;95790.88;5069932;28;20044;-81
2023/08/12 05:18:54;;;;;;;5.97;3.80;;;;;;;17.94;nan;95832.69;5072753;28;20033;-81
2023/08/12 05:21:19;;;;;;;6.53;3.38;;;;;;;18.00;nan;95834.16;5071913;28;20047;-81
2023/08/12 05:23:45;;;;;;;7.60;3.60;;;;;;;17.89;nan;95822.88;5071555;28;20033;-82
2023/08/12 05:26:10;;;;;;;12.23;3.95;;;;;;;17.58;nan;95771.78;5072068;28;20494;-81
2023/08/12 05:28:36;;;;;;;7.00;3.53;;;;;;;17.52;nan;95775.66;5071037;28;20109;-82
2023/08/12 05:31:01;;;;;;;7.35;3.65;;;;;;;17.91;nan;95827.94;5071965;28;20056;-82
2023/08/12 05:33:27;;;;;;;8.75;3.63;;;;;;;18.07;nan;95845.28;5071644;28;20126;-81
2023/08/12 05:35:53;;;;;;;9.25;3.95;;;;;;;17.83;nan;95796.47;5072707;28;20463;-81
2023/08/12 05:38:19;;;;;;;7.40;3.75;;;;;;;17.88;nan;95815.91;5073238;28;20092;-81
2023/08/12 05:40:44;;;;;;;12.93;3.70;;;;;;;17.65;nan;95774.06;5070816;28;20056;-81
2023/08/12 05:43:10;;;;;;;7.63;3.97;;;;;;;17.89;nan;95824.75;5071442;28;20162;-81
2023/08/12 05:45:35;;;;;;;9.38;4.18;;;;;;;17.78;nan;95818.00;5071331;28;20101;-81
2023/08/12 05:48:00;;;;;;;8.63;3.70;;;;;;;17.84;nan;95817.63;5070418;28;20033;-80
2023/08/12 05:50:26;;;;;;;8.95;3.95;;;;;;;17.92;nan;95824.16;5072695;28;20028;-81
2023/08/12 05:52:51;;;;;;;12.48;4.05;;;;;;;18.01;nan;95833.84;5073566;28;20081;-81
2023/08/12 05:55:17;;;;;;;12.38;3.75;;;;;;;17.99;nan;95824.53;5077710;28;20039;-81
2023/08/12 05:57:42;;;;;;;10.80;4.03;;;;;;;17.52;nan;95769.50;5071005;28;20498;-81
2023/08/12 06:00:08;;;;;;;9.85;3.90;;;;;;;17.10;nan;95704.47;5073569;28;20038;-81
2023/08/12 06:02:34;;;;;;;5.90;3.88;;;;;;;17.93;nan;95823.81;5072606;28;20039;-81
2023/08/12 06:04:59;;;;;;;10.93;3.95;;;;;;;17.82;nan;95805.59;5077995;28;20036;-81
2023/08/12 06:07:24;;;;;;;8.75;3.25;;;;;;;17.31;nan;95718.22;5077029;28;20036;-81
2023/08/12 06:09:50;;;;;;;13.77;3.90;;;;;;;17.83;nan;95783.84;5073427;28;20020;-81
2023/08/12 06:12:16;;;;;;;11.02;4.05;;;;;;;18.28;nan;95830.25;5073075;28;20024;-81
2023/08/12 06:14:42;;;;;;;8.75;3.30;;;;;;;18.10;nan;95812.44;5070960;28;20109;-81
2023/08/12 06:17:07;;;;;;;10.68;3.78;;;;;;;18.19;nan;95821.34;5070016;28;20041;-81
2023/08/12 06:19:33;;;;;;;10.75;3.47;;;;;;;18.16;nan;95818.50;5070651;28;20186;-80
2023/08/12 06:21:58;;;;;;;11.02;4.10;;;;;;;18.24;nan;95825.78;5072060;28;20036;-81
2023/08/12 06:24:24;;;;;;;5.55;3.65;;;;;;;18.01;nan;95774.00;5076228;28;20028;-81
2023/08/12 06:26:49;;;;;;;10.82;3.90;;;;;;;18.01;nan;95782.84;5070828;28;20038;-81
2023/08/12 06:29:15;;;;;;;4.95;3.20;;;;;;;18.07;nan;95783.53;5071368;28;20036;-81
2023/08/12 06:31:40;;;;;;;10.13;3.97;;;;;;;18.39;nan;95820.03;5069709;28;20032;-81
2023/08/12 06:34:06;;;;;;;8.80;3.92;;;;;;;18.41;nan;95818.63;5071199;28;20024;-81
2023/08/12 06:36:31;;;;;;;5.60;3.55;;;;;;;18.23;nan;95768.63;5072297;28;20043;-81
2023/08/12 06:38:57;;;;;;;11.73;3.97;;;;;;;18.40;nan;95779.44;5072535;28;20483;-81
2023/08/12 06:41:22;;;;;;;8.75;4.25;;;;;;;18.56;nan;95789.81;5072804;28;20028;-81
2023/08/12 06:43:48;;;;;;;7.07;4.15;;;;;;;18.62;nan;95797.44;5070075;28;20036;-81
2023/08/12 06:46:13;;;;;;;8.45;4.22;;;;;;;18.68;nan;95782.00;5073372;28;20043;-81
2023/08/12 06:48:39;;;;;;;5.35;4.00;;;;;;;18.73;nan;95781.84;5072651;28;20120;-81
2023/08/12 06:51:10;;;;;;;8.48;4.00;;;;;;;18.86;nan;95803.25;5070934;28;20177;-81
2023/08/12 06:53:36;;;;;;;6.28;3.15;;;;;;;18.90;nan;95806.13;5074627;28;20031;-81
2023/08/12 06:56:02;;;;;;;6.45;3.50;;;;;;;18.83;nan;95784.28;5072497;28;20036;-81
2023/08/12 06:58:27;;;;;;;6.53;3.15;;;;;;;18.86;nan;95776.38;5070939;28;20040;-81
2023/08/12 07:00:53;;;;;;;7.65;3.80;;;;;;;18.86;nan;95762.13;5073208;28;20090;-81
2023/08/12 07:03:18;;;;;;;7.95;3.35;;;;;;;19.26;nan;95797.84;5070896;28;20103;-81
2023/08/12 07:05:44;;;;;;;5.38;3.80;;;;;;;19.05;nan;95743.88;5071691;28;20034;-81
2023/08/12 07:08:10;;;;;;;10.98;3.75;;;;;;;19.36;nan;95794.84;5073732;28;20415;-81
2023/08/12 07:10:38;;;;;;;9.43;3.47;;;;;;;18.87;nan;95724.22;5072791;28;20134;-81
2023/08/12 07:13:04;;;;;;;5.55;3.50;;;;;;;19.30;nan;95792.63;5054605;28;20032;-81
2023/08/12 07:15:29;;;;;;;5.95;3.90;;;;;;;18.73;nan;95685.13;5072608;28;20049;-81
2023/08/12 07:17:55;;;;;;;7.22;3.60;;;;;;;19.13;nan;95731.53;5070938;28;20048;-81
2023/08/12 07:20:21;;;;;;;6.88;3.95;;;;;;;19.63;nan;95793.81;5072062;28;20040;-81
2023/08/12 07:22:46;;;;;;;10.43;4.60;;;;;;;19.59;nan;95777.50;5072773;28;20388;-81
2023/08/12 07:25:12;;;;;;;7.97;4.00;;;;;;;19.66;nan;95777.03;5070321;28;20035;-82
2023/08/12 07:27:37;;;;;;;7.40;4.13;;;;;;;19.52;nan;95766.44;5069991;28;20043;-81
2023/08/12 07:30:03;;;;;;;5.55;3.47;;;;;;;19.46;nan;95734.56;5072790;28;20092;-81
2023/08/12 07:32:28;;;;;;;6.25;3.60;;;;;;;19.79;nan;95775.28;5070040;28;20046;-81
2023/08/12 07:34:54;;;;;;;7.22;3.60;;;;;;;19.85;nan;95790.16;5072261;28;20104;-81
2023/08/12 07:37:19;;;;;;;7.38;3.90;;;;;;;19.50;nan;95738.25;5071053;28;20494;-81
2023/08/12 07:39:45;;;;;;;6.70;3.53;;;;;;;19.49;nan;95712.47;5071099;28;20039;-81
2023/08/12 07:42:10;;;;;;;5.30;3.60;;;;;;;19.68;nan;95745.22;5072546;28;20123;-81
2023/08/12 07:44:36;;;;;;;6.20;3.42;;;;;;;19.59;nan;95709.47;5075321;28;20029;-81
2023/08/12 07:47:01;;;;;;;8.10;3.28;;;;;;;20.03;nan;95767.50;5071264;28;20024;-81
2023/08/12 07:49:27;;;;;;;7.28;3.40;;;;;;;19.97;nan;95741.88;5073032;28;20436;-81
2023/08/12 07:51:52;;;;;;;4.15;2.50;;;;;;;20.23;nan;95779.50;5072420;28;20127;-81
2023/08/12 07:54:18;;;;;;;10.13;3.63;;;;;;;19.61;nan;95685.69;5072222;28;20052;-81
2023/08/12 07:56:43;;;;;;;5.63;3.50;;;;;;;20.23;nan;95761.44;5075717;28;20043;-81
2023/08/12 07:59:08;;;;;;;5.75;3.20;;;;;;;20.32;nan;95769.53;5069932;28;20531;-81
2023/08/12 08:01:34;;;;;;;9.85;3.50;;;;;;;20.45;nan;95765.88;5071445;28;20387;-81
2023/08/12 08:03:59;;;;;;;4.60;3.40;;;;;;;20.29;nan;95732.47;5071105;28;20082;-81
2023/08/12 08:06:25;;;;;;;4.43;3.38;;;;;;;20.42;nan;95744.97;5069516;28;20020;-81
2023/08/12 08:08:50;;;;;;;6.05;3.10;;;;;;;20.29;nan;95721.69;5070840;28;20044;-81
2023/08/12 08:11:16;;;;;;;11.00;3.17;;;;;;;20.20;nan;95713.63;5070333;28;20052;-81
2023/08/12 08:13:41;;;;;;;6.65;3.03;;;;;;;20.64;nan;95765.50;5073607;28;20083;-81
2023/08/12 08:16:07;;;;;;;6.50;3.25;;;;;;;20.28;nan;95712.81;5069708;28;20031;-81
2023/08/12 08:18:32;;;;;;;5.65;3.25;;;;;;;20.64;nan;95752.81;5071683;28;20094;-81
2023/08/12 08:20:58;;;;;;;9.20;3.38;;;;;;;20.72;nan;95743.13;5081404;28;20032;-81
2023/08/12 08:23:23;;;;;;;6.60;3.20;;;;;;;20.85;nan;95752.09;5078588;28;20036;-81
2023/08/12 08:25:48;;;;;;;6.88;3.53;;;;;;;20.71;nan;95720.75;5076254;28;20032;-81
2023/08/12 08:28:14;;;;;;;5.43;2.58;;;;;;;20.93;nan;95743.97;5070789;28;20031;-81
2023/08/12 08:30:39;;;;;;;7.45;3.17;;;;;;;20.77;nan;95705.97;5073135;28;20103;-81
2023/08/12 08:33:05;;;;;;;6.35;3.35;;;;;;;20.93;nan;95714.31;5069872;28;20032;-81
2023/08/12 08:35:30;;;;;;;5.25;3.00;;;;;;;20.87;nan;95685.16;5068902;28;20128;-81
2023/08/12 08:37:56;;;;;;;7.63;3.13;;;;;;;21.22;nan;95728.91;5070409;28;20028;-81
2023/08/12 08:40:21;;;;;;;7.75;3.08;;;;;;;21.21;nan;95721.94;5070920;28;20025;-81
2023/08/12 08:42:52;;;;;;;9.10;2.65;;;;;;;21.09;nan;95703.75;5070984;28;20024;-81
2023/08/12 08:45:17;;;;;;;5.47;2.70;;;;;;;21.26;nan;95724.44;5071766;28;20623;-81
2023/08/12 08:47:44;;;;;;;3.20;2.67;;;;;;;20.77;nan;95643.97;5079456;28;20043;-81
2023/08/12 08:50:10;;;;;;;3.80;3.05;;;;;;;21.10;nan;95702.63;5072282;28;20027;-81
2023/08/12 08:52:37;;;;;;;5.72;2.97;;;;;;;21.36;nan;95734.88;5075694;28;20028;-81
2023/08/12 08:55:04;;;;;;;8.88;2.72;;;;;;;21.12;nan;95681.53;5076165;28;20029;-81
2023/08/12 08:57:30;;;;;;;5.25;2.92;;;;;;;21.39;nan;95726.88;5073989;28;20071;-81
2023/08/12 08:59:55;;;;;;;7.82;2.80;;;;;;;21.15;nan;95670.06;5073933;28;20040;-81
2023/08/12 09:02:21;;;;;;;5.68;3.08;;;;;;;21.36;nan;95686.31;5074966;28;20074;-81
2023/08/12 09:04:47;;;;;;;7.50;2.75;;;;;;;21.75;nan;95736.28;5074322;28;20130;-81
2023/08/12 09:07:16;;;;;;;6.60;3.00;;;;;;;21.60;nan;95718.00;5071512;28;20064;-81
2023/08/12 09:09:47;;;;;;;4.28;3.03;;;;;;;21.62;nan;95705.75;5075564;28;20399;-81
2023/08/12 09:12:15;;;;;;;3.70;2.75;;;;;;;21.37;nan;95648.16;5072499;28;20024;-81
2023/08/12 09:14:42;;;;;;;5.45;3.13;;;;;;;21.72;nan;95681.06;5072597;28;20060;-81
2023/08/12 09:17:08;;;;;;;6.05;2.97;;;;;;;21.93;nan;95711.50;5071022;28;20529;-81
2023/08/12 09:19:33;;;;;;;5.72;2.95;;;;;;;22.01;nan;95701.78;5073927;28;20036;-81
2023/08/12 09:21:59;;;;;;;5.13;2.72;;;;;;;21.60;nan;95643.22;5073925;28;20025;-81
2023/08/12 09:24:25;;;;;;;6.13;2.67;;;;;;;21.79;nan;95656.22;5071379;28;20025;-81
2023/08/12 09:26:55;;;;;;;3.42;2.90;;;;;;;21.55;nan;95606.44;5071715;28;20037;-81
2023/08/12 09:29:34;;;;;;;6.60;3.10;;;;;;;21.93;nan;95649.41;5073173;28;20024;-81
2023/08/12 09:32:13;;;;;;;6.15;2.88;;;;;;;21.91;nan;95643.53;5073707;28;20103;-81
2023/08/12 09:34:47;;;;;;;8.48;3.00;;;;;;;22.29;nan;95683.81;5069175;28;20036;-81
2023/08/12 09:37:13;;;;;;;6.35;3.05;;;;;;;22.38;nan;95686.44;5068225;28;20024;-81
2023/08/12 09:39:40;;;;;;;4.47;2.88;;;;;;;22.17;nan;95664.09;5072955;28;20029;-81
2023/08/12 09:42:05;;;;;;;7.18;2.88;;;;;;;22.20;nan;95658.03;5073965;28;20025;-81
2023/08/12 09:44:35;;;;;;;5.25;2.80;;;;;;;22.25;nan;95650.50;5074086;28;20027;-81
2023/08/12 09:47:00;;;;;;;5.53;2.97;;;;;;;22.52;nan;95686.88;5071828;28;20467;-81
2023/08/12 09:49:26;;;;;;;4.63;2.63;;;;;;;22.39;nan;95650.19;5074104;28;20358;-81
2023/08/12 09:51:52;;;;;;;3.50;2.63;;;;;;;22.64;nan;95673.41;5073157;28;20043;-81
2023/08/12 09:54:19;;;;;;;4.53;2.22;;;;;;;22.70;nan;95649.63;5073291;28;20036;-81
2023/08/12 09:56:47;;;;;;;9.40;2.75;;;;;;;22.55;nan;95580.81;5073888;28;20028;-82
2023/08/12 09:59:18;;;;;;;6.18;2.50;;;;;;;23.46;nan;95609.00;5073460;28;20048;-81
2023/08/12 10:01:45;;;;;;;4.13;2.45;;;;;;;24.47;nan;95605.06;5072643;28;20055;-82
2023/08/12 10:04:14;;;;;;;3.25;2.10;;;;;;;25.64;nan;95624.69;5072877;28;20032;-82
2023/08/12 10:06:41;;;;;;;5.30;2.50;;;;;;;26.81;nan;95648.50;5071496;28;20051;-82
2023/08/12 10:09:09;;;;;;;3.55;2.15;;;;;;;27.81;nan;95667.00;5077377;28;20024;-83
2023/08/12 10:11:35;;;;;;;2.55;2.30;;;;;;;28.26;nan;95588.81;5073145;28;20040;-83
2023/08/12 10:14:04;;;;;;;4.25;2.70;;;;;;;28.69;nan;95601.63;5073932;28;20171;-84
2023/08/12 10:16:30;;;;;;;3.53;2.40;;;;;;;29.70;nan;95664.66;5073751;28;20028;-83
2023/08/12 10:19:00;;;;;;;3.17;2.08;;;;;;;30.33;nan;95646.09;5074377;28;20119;-84
2023/08/12 10:21:26;;;;;;;5.47;2.20;;;;;;;30.00;nan;95596.03;5072426;28;20031;-83
2023/08/12 10:23:54;;;;;;;3.40;2.30;;;;;;;30.25;nan;95626.16;5072594;28;20028;-83
2023/08/12 10:26:20;;;;;;;8.05;2.65;;;;;;;29.61;nan;95440.13;5071530;28;20037;-83
2023/08/12 10:28:46;;;;;;;7.63;2.83;;;;;;;30.87;nan;95577.31;5071178;28;20067;-83
2023/08/12 10:31:11;;;;;;;5.15;2.17;;;;;;;31.69;nan;95642.88;5072706;28;20028;-83
2023/08/12 10:33:41;;;;;;;5.13;2.33;;;;;;;32.03;nan;95638.41;5072415;28;20040;-83
2023/08/12 10:36:07;;;;;;;5.55;2.60;;;;;;;32.04;nan;95639.19;5071140;28;20028;-83
2023/08/12 10:38:33;;;;;;;4.57;1.88;;;;;;;32.47;nan;95645.97;5071508;28;20055;-83
2023/08/12 10:41:18;;;;;;;4.28;2.30;;;;;;;32.76;nan;95638.31;5070568;28;20039;-83
2023/08/12 10:43:54;;;;;;;4.07;2.05;;;;;;;32.84;nan;95630.78;5071445;28;20617;-83
2023/08/12 10:46:29;;;;;;;2.92;2.05;;;;;;;32.46;nan;95539.31;5073007;28;20048;-83
2023/08/12 10:49:07;;;;;;;5.00;1.95;;;;;;;32.83;nan;95580.56;5072480;28;20562;-83
2023/08/12 10:51:48;;;;;;;5.53;2.28;;;;;;;33.32;nan;95625.25;5070666;28;20034;-83
2023/08/12 10:54:17;;;;;;;5.43;2.13;;;;;;;33.18;nan;95608.88;5073014;28;20086;-83
2023/08/12 10:57:11;;;;;;;5.50;2.03;;;;;;;33.48;nan;95622.72;5071644;28;20033;-82
2023/08/12 10:59:45;;;;;;;3.58;2.15;;;;;;;33.49;nan;95615.25;5074154;28;20029;-82
2023/08/12 11:02:28;;;;;;;2.85;1.90;;;;;;;33.68;nan;95615.38;5072154;28;20050;-82
2023/08/12 11:05:01;;;;;;;3.08;2.00;;;;;;;33.61;nan;95607.22;5076758;28;20040;-82
2023/08/12 11:07:51;;;;;;;2.40;1.80;;;;;;;33.92;nan;95599.00;5067741;28;20020;-82
2023/08/12 11:10:21;;;;;;;3.67;2.38;;;;;;;33.91;nan;95580.94;5072404;28;20024;-82
2023/08/12 11:12:52;;;;;;;3.88;2.28;;;;;;;33.83;nan;95605.00;5070517;28;20040;-83
2023/08/12 11:15:19;;;;;;;4.25;2.10;;;;;;;34.04;nan;95585.44;5069453;28;20120;-82
2023/08/12 11:17:46;;;;;;;3.72;1.73;;;;;;;33.98;nan;95591.81;5072188;28;20040;-83
2023/08/12 11:20:13;;;;;;;3.97;2.38;;;;;;;34.27;nan;95581.19;5071964;28;20111;-83
2023/08/12 11:22:43;;;;;;;4.45;1.95;;;;;;;33.80;nan;95537.03;5070063;28;20083;-82
2023/08/12 11:25:12;;;;;;;3.15;1.80;;;;;;;33.42;nan;95563.84;5072961;28;20481;-82
2023/08/12 11:27:44;;;;;;;3.42;1.63;;;;;;;33.69;nan;95594.94;5071657;28;20089;-83
2023/08/12 11:30:12;;;;;;;3.13;2.13;;;;;;;33.66;nan;95587.50;5071112;28;20036;-83
2023/08/12 11:32:38;;;;;;;3.40;1.80;;;;;;;33.33;nan;95536.09;5070931;28;20339;-82
2023/08/12 11:35:06;;;;;;;8.13;1.83;;;;;;;32.82;nan;95539.78;5072699;28;20040;-82
2023/08/12 11:37:32;;;;;;;3.13;1.88;;;;;;;33.03;nan;95558.03;5069911;28;20044;-82
2023/08/12 11:39:58;;;;;;;3.75;1.67;;;;;;;32.55;nan;95578.06;5070295;28;20086;-82
2023/08/12 11:42:23;;;;;;;3.17;1.42;;;;;;;32.54;nan;95585.53;5069539;28;20513;-83
2023/08/12 11:44:49;;;;;;;2.80;1.30;;;;;;;31.69;nan;95530.44;5071480;28;20101;-82
2023/08/12 11:47:14;;;;;;;2.10;1.50;;;;;;;31.48;nan;95577.13;5069786;28;20054;-83